Eloy, AZ

7:44 AM MST on September 23, 2014 (GMT -0700)
Vyn's tower | Change Station
CLOSE
Current Station
Personal Weather Station
Location: Arizona City, AZ
Elevation: 1530 ft
Nearby Weather Stations

Elev 1530 ft 32.73 °N, 111.66 °W | Updated 1 second ago

Clear
Clear
78.1 °F
Feels Like 80 °F
N
0.0
Wind Variable Wind from SE
Gusts 0.0 mph

Today
High -- | Low -- °F
--% Chance of Precip.
Yesterday
High -- | Low -- °F
Precip. -- in
6:15 AM 6:21 PM
Waning Crescent, 0% visible
Pressure 29.98 in
Visibility 10.0 miles
Clouds Clear
Heat Index 80 °F
Dew Point 61 °F
Humidity 56%
Rainfall 0.00 in
Snow Depth 0 in , 0 in , 0 in
UV 1 out of 12
Pollen 6.70 out of 12
Air Quality Not available.
Flu Activity Not available.
METAR KCGZ 231435Z AUTO 00000KT 10SM CLR 25/13 A2998 RMK AO1

More Conditions Fewer Conditions

Pressure 29.98 in
Visibility 10.0 miles
Clouds Clear
Heat Index 80 °F
Dew Point 61 °F
Humidity 56%
Rainfall 0.00 in
Snow Depth 0 in , 0 in , 0 in
UV 1 out of 12
Pollen 6.70 out of 12
Air Quality Not available.
Flu Activity Not available.
METAR KCGZ 231435Z AUTO 00000KT 10SM CLR 25/13 A2998 RMK AO1

More Conditions Fewer Conditions

10-Day Weather Forecast

Almanac

Astronomy

Sep. 23, 2014 Rise Set
Actual Time 6:15 AM MST 6:21 PM MST
Civil Twilight 5:50 AM MST 6:46 PM MST
Nautical Twilight 5:21 AM MST 7:14 PM MST
Astronomical Twilight 4:52 AM MST 7:43 PM MST
Moon 5:43 AM MST 6:03 PM MST
Length of Visible Light 12h 55m
Length of Day
12h 06m
Tomorrow will be 2m 0s shorter.
Waning Crescent, 0% of the Moon is Illuminated
Today
Waning Crescent
Sep 24
New
Oct 1
First Quarter
Oct 8
Full
Oct 15
Last Quarter

Today's Extremes

State Highs State Lows

Community

WunderPhotos

Upload Photos

1,755,711 photos uploaded!

Nearby

Snow Depth

Station Depth Elevation
White Horse Lake 0 in 7180 ft
Snowslide Canyon 0 in 9730 ft
Fry 0 in 7200 ft
Wildcat 0 in 7850 ft
Mormon Mountain 0 in 7500 ft

Earthquake Activity

City Distance Mag. Time & Date
No recent earthquake activity has been reported nearby.
Minimum magnitude displayed is 2.5.

Coastal Water Temperatures

Place Temperature
No Stations Reporting

Nearby Weather Stations